Time;durP1;ratioP1;P1;durP2;ratioP2;P2;SDS_P1;SDS_P2;PMS_P1;PMS_P2;Temp;Humidity;BMP_temperature;BMP_pressure;BME280_temperature;BME280_humidity;BME280_pressure;Samples;Min_cycle;Max_cycle;Signal;HPM_P1;HPM_P2
2022/11/21 00:01:16;;;;;;;29.08;18.00;;;-0.50;1.00;;;;;;5074762;28;20240;-82
2022/11/21 00:03:45;;;;;;;29.95;18.15;;;-0.30;1.00;;;;;;5073634;28;20244;-83
2022/11/21 00:06:25;;;;;;;28.85;18.90;;;-0.30;1.00;;;;;;5071377;28;20237;-83
2022/11/21 00:08:59;;;;;;;26.80;18.65;;;-0.10;1.00;;;;;;5076155;28;20227;-82
2022/11/21 00:11:26;;;;;;;30.50;17.25;;;-0.10;1.00;;;;;;5074978;28;20246;-83
2022/11/21 00:13:56;;;;;;;26.00;16.55;;;-0.10;1.00;;;;;;5072298;28;20244;-82
2022/11/21 00:16:26;;;;;;;27.55;17.27;;;-0.10;1.00;;;;;;5074618;28;20316;-82
2022/11/21 00:18:57;;;;;;;27.20;17.00;;;-0.10;1.00;;;;;;5077824;28;20932;-83
2022/11/21 00:24:27;;;;;;;30.63;17.98;;;-0.10;1.00;;;;;;5077102;28;20276;-84
2022/11/21 00:26:57;;;;;;;28.60;16.60;;;0.00;1.00;;;;;;5078047;28;21047;-83
2022/11/21 00:29:34;;;;;;;24.63;16.60;;;-0.10;1.00;;;;;;5075960;28;21211;-83
2022/11/21 00:32:01;;;;;;;26.23;16.75;;;-0.10;1.00;;;;;;5075798;28;20249;-84
2022/11/21 00:34:28;;;;;;;26.70;17.27;;;-0.10;1.00;;;;;;5060228;28;20289;-83
2022/11/21 00:36:57;;;;;;;27.15;16.20;;;-0.10;1.00;;;;;;5069220;28;20252;-90
2022/11/21 00:39:25;;;;;;;27.85;16.90;;;-0.10;1.00;;;;;;5075790;28;20232;-85
2022/11/21 00:42:06;;;;;;;29.02;17.05;;;-0.10;1.00;;;;;;5080465;28;20232;-88
2022/11/21 00:44:43;;;;;;;26.48;15.90;;;-0.20;1.00;;;;;;5052115;28;20248;-86
2022/11/21 00:47:10;;;;;;;28.55;17.08;;;-0.20;1.00;;;;;;5081451;28;20237;-87
2022/11/21 00:49:42;;;;;;;24.65;15.68;;;-0.10;1.00;;;;;;5083912;28;20298;-90
2022/11/21 00:52:10;;;;;;;26.20;16.33;;;-0.10;1.00;;;;;;5075841;28;20255;-89
2022/11/21 00:54:46;;;;;;;26.67;16.70;;;-0.10;1.00;;;;;;5080485;28;20240;-90
2022/11/21 00:59:54;;;;;;;28.80;18.45;;;-0.10;1.00;;;;;;5079270;28;20237;-90
2022/11/21 01:02:27;;;;;;;27.55;17.48;;;-0.10;1.00;;;;;;5068452;28;20236;-90
2022/11/21 01:05:01;;;;;;;28.52;18.10;;;0.00;1.00;;;;;;5082351;28;20249;-90
2022/11/21 01:07:28;;;;;;;24.70;16.73;;;0.00;1.00;;;;;;5075604;28;20233;-87
2022/11/21 01:10:03;;;;;;;28.35;17.65;;;0.00;1.00;;;;;;5079940;28;20237;-81
2022/11/21 01:12:31;;;;;;;24.75;16.05;;;-0.10;1.00;;;;;;5068280;28;20248;-82
2022/11/21 01:15:04;;;;;;;25.35;16.33;;;0.00;1.00;;;;;;5069741;28;20260;-81
2022/11/21 01:17:33;;;;;;;26.00;16.70;;;0.10;1.00;;;;;;5070077;28;20237;-82
2022/11/21 01:20:04;;;;;;;26.33;17.13;;;0.10;1.00;;;;;;5071273;28;20320;-81
2022/11/21 01:22:31;;;;;;;28.67;16.65;;;0.10;1.00;;;;;;5068221;28;20236;-80
2022/11/21 01:25:23;;;;;;;24.92;16.40;;;0.20;1.00;;;;;;5073766;28;20232;-80
2022/11/21 01:27:50;;;;;;;25.50;17.17;;;0.20;1.00;;;;;;5067825;28;21126;-81
2022/11/21 01:30:17;;;;;;;25.55;16.35;;;0.20;1.00;;;;;;5073787;28;20288;-84
2022/11/21 01:32:48;;;;;;;25.58;16.35;;;0.20;1.00;;;;;;5075802;28;20238;-83
2022/11/21 01:35:18;;;;;;;25.30;17.42;;;0.20;1.00;;;;;;5076236;28;20992;-81
2022/11/21 01:37:47;;;;;;;26.63;17.25;;;0.20;1.00;;;;;;5078256;28;20240;-88
2022/11/21 01:40:21;;;;;;;25.05;16.52;;;0.20;1.00;;;;;;5075173;28;20242;-82
2022/11/21 01:43:03;;;;;;;27.40;17.27;;;0.20;1.00;;;;;;5086789;28;20228;-86
2022/11/21 01:46:06;;;;;;;25.55;16.83;;;0.20;1.00;;;;;;5083796;28;20228;-84
2022/11/21 01:48:42;;;;;;;27.83;17.85;;;0.30;1.00;;;;;;4990456;28;20238;-84
2022/11/21 01:51:16;;;;;;;28.63;17.90;;;0.30;1.00;;;;;;4976457;28;20240;-85
2022/11/21 01:53:53;;;;;;;28.60;18.10;;;0.20;1.00;;;;;;5035617;28;20240;-81
2022/11/21 01:56:24;;;;;;;27.02;18.30;;;0.20;1.00;;;;;;5079832;28;20224;-82
2022/11/21 01:59:06;;;;;;;27.40;16.95;;;0.00;1.00;;;;;;5077584;28;20724;-79
2022/11/21 02:01:34;;;;;;;25.90;18.02;;;-0.10;1.00;;;;;;5070655;28;20299;-79
2022/11/21 02:04:06;;;;;;;27.65;17.42;;;-0.10;1.00;;;;;;5070781;28;20733;-82
2022/11/21 02:06:46;;;;;;;25.00;16.23;;;-0.10;1.00;;;;;;5067920;28;20246;-80
2022/11/21 02:09:13;;;;;;;29.70;18.35;;;0.00;1.00;;;;;;5061432;28;20268;-80
2022/11/21 02:11:49;;;;;;;27.40;16.77;;;0.00;1.00;;;;;;5078301;28;20226;-81
2022/11/21 02:14:21;;;;;;;26.67;17.25;;;0.00;1.00;;;;;;5074253;28;20236;-81
2022/11/21 02:16:50;;;;;;;26.38;16.33;;;0.10;1.00;;;;;;5078785;28;20240;-81
2022/11/21 02:19:28;;;;;;;27.90;17.80;;;0.10;1.00;;;;;;5080775;28;20261;-79
2022/11/21 02:22:05;;;;;;;28.90;17.95;;;0.00;1.00;;;;;;5077604;28;20294;-79
2022/11/21 02:24:43;;;;;;;27.35;18.05;;;0.10;1.00;;;;;;5081250;27;20233;-82
2022/11/21 02:33:32;;;;;;;26.98;16.50;;;-0.10;1.00;;;;;;5074405;27;20261;-88
2022/11/21 02:36:29;;;;;;;29.35;17.58;;;0.00;1.00;;;;;;5112655;27;20218;-88
2022/11/21 02:38:59;;;;;;;27.08;17.38;;;0.00;1.00;;;;;;5131861;22;20254;-90
2022/11/21 02:44:34;;;;;;;28.42;19.77;;;0.10;1.00;;;;;;5132563;22;20216;-82
2022/11/21 02:47:08;;;;;;;27.23;16.55;;;0.20;1.00;;;;;;5101687;28;20228;-89
2022/11/21 02:49:47;;;;;;;32.47;18.55;;;0.20;1.00;;;;;;5099286;28;20236;-82
2022/11/21 02:52:14;;;;;;;30.80;18.55;;;0.20;1.00;;;;;;5097794;28;20244;-80
2022/11/21 02:54:42;;;;;;;27.13;18.45;;;0.20;1.00;;;;;;5099675;28;20270;-82
2022/11/21 02:57:11;;;;;;;29.77;18.52;;;0.20;1.00;;;;;;5102501;28;20798;-79
2022/11/21 02:59:45;;;;;;;30.38;17.83;;;0.20;1.00;;;;;;5105983;28;20242;-80
2022/11/21 03:02:31;;;;;;;28.13;18.83;;;0.30;1.00;;;;;;5103900;28;20236;-79
2022/11/21 03:05:07;;;;;;;31.08;17.67;;;0.30;1.00;;;;;;5156924;22;20252;-80
2022/11/21 03:07:45;;;;;;;;;;;;;;;;;;;;;
2022/11/21 03:10:13;;;;;;;30.67;18.10;;;0.20;1.00;;;;;;5092405;28;42283;-83
2022/11/21 03:12:46;;;;;;;27.13;17.95;;;0.20;1.00;;;;;;5100951;28;20216;-81
2022/11/21 03:15:21;;;;;;;31.10;18.90;;;0.20;1.00;;;;;;5107306;28;20239;-83
2022/11/21 03:18:02;;;;;;;30.50;17.75;;;0.20;1.00;;;;;;5098718;28;20247;-83
2022/11/21 03:20:48;;;;;;;27.35;17.92;;;0.10;1.00;;;;;;5252724;22;20203;-88
2022/11/21 03:23:21;;;;;;;29.85;19.10;;;-0.10;1.00;;;;;;5120703;27;20236;-80
2022/11/21 03:25:50;;;;;;;28.90;19.10;;;-0.10;1.00;;;;;;5116108;27;20229;-84
2022/11/21 03:28:25;;;;;;;29.20;17.98;;;0.00;1.00;;;;;;5120778;27;20231;-79
2022/11/21 03:30:55;;;;;;;29.63;18.70;;;0.00;1.00;;;;;;5184900;22;20235;-88
2022/11/21 03:33:24;;;;;;;30.38;19.45;;;0.00;1.00;;;;;;5125676;27;20234;-84
2022/11/21 03:35:51;;;;;;;33.05;20.58;;;0.00;1.00;;;;;;5131821;27;20344;-81
2022/11/21 03:38:27;;;;;;;30.98;21.05;;;-0.10;1.00;;;;;;5119339;27;21482;-79
2022/11/21 03:41:04;;;;;;;;;;;;;;;;;;;;;
2022/11/21 03:43:32;;;;;;;29.65;18.15;;;-0.10;1.00;;;;;;5090576;27;51944;-87
2022/11/21 03:46:06;;;;;;;29.83;18.23;;;0.00;1.00;;;;;;5130161;27;20223;-84
2022/11/21 03:48:35;;;;;;;32.35;19.67;;;0.00;1.00;;;;;;5125917;27;20963;-84
2022/11/21 03:51:02;;;;;;;35.05;21.25;;;0.00;1.00;;;;;;5121212;27;20325;-80
2022/11/21 03:53:29;;;;;;;34.60;20.67;;;-0.10;1.00;;;;;;5120599;27;20234;-81
2022/11/21 03:56:02;;;;;;;31.52;19.45;;;-0.10;1.00;;;;;;5119670;27;20249;-78
2022/11/21 03:58:29;;;;;;;30.95;19.40;;;-0.20;1.00;;;;;;5119443;27;20323;-80
2022/11/21 04:00:59;;;;;;;32.75;18.90;;;-0.20;1.00;;;;;;5124852;27;21138;-80
2022/11/21 04:03:30;;;;;;;30.42;18.60;;;-0.30;1.00;;;;;;5125833;27;20227;-88
2022/11/21 04:06:03;;;;;;;29.92;19.98;;;-0.20;1.00;;;;;;5125845;27;20327;-83
2022/11/21 04:08:30;;;;;;;30.13;19.42;;;-0.20;1.00;;;;;;5117392;27;20241;-85
2022/11/21 04:11:02;;;;;;;33.22;19.45;;;-0.30;1.00;;;;;;5129384;27;20239;-79
2022/11/21 04:13:29;;;;;;;32.00;21.27;;;-0.30;1.00;;;;;;5124997;27;20231;-83
2022/11/21 04:16:01;;;;;;;35.90;20.55;;;-0.40;1.00;;;;;;5125057;27;20224;-82
2022/11/21 04:18:28;;;;;;;31.05;18.90;;;-0.40;1.00;;;;;;5129491;27;25783;-88
2022/11/21 04:21:04;;;;;;;31.05;19.10;;;-0.20;1.00;;;;;;5134259;27;20241;-79
2022/11/21 04:23:32;;;;;;;31.67;18.83;;;-0.10;1.00;;;;;;5121891;27;20242;-79
2022/11/21 04:26:08;;;;;;;29.00;19.00;;;-0.10;1.00;;;;;;5127721;27;20232;-80
2022/11/21 04:28:45;;;;;;;;;;;;;;;;;;;;;
2022/11/21 04:31:24;;;;;;;32.50;21.20;;;-0.30;1.00;;;;;;5126950;27;40701;-84
2022/11/21 04:33:52;;;;;;;35.70;22.42;;;-0.30;1.00;;;;;;5119654;28;20235;-82
2022/11/21 04:36:28;;;;;;;37.13;21.38;;;-0.20;1.00;;;;;;5122587;27;20243;-83
2022/11/21 04:38:55;;;;;;;33.78;20.45;;;-0.10;1.00;;;;;;5122142;27;20238;-79
2022/11/21 04:41:33;;;;;;;31.40;20.02;;;-0.10;1.00;;;;;;5129526;27;20216;-88
2022/11/21 04:44:00;;;;;;;33.40;19.20;;;0.00;1.00;;;;;;5136355;27;20247;-82
2022/11/21 04:52:17;;;;;;;30.38;19.50;;;0.10;1.00;;;;;;5185119;22;20221;-80
2022/11/21 04:54:44;;;;;;;33.92;20.65;;;0.20;1.00;;;;;;5110616;28;20282;-80
2022/11/21 04:57:15;;;;;;;34.50;21.02;;;0.10;1.00;;;;;;5113859;28;20226;-79
2022/11/21 04:59:42;;;;;;;31.35;20.05;;;0.10;1.00;;;;;;5108281;28;20232;-80
2022/11/21 05:02:10;;;;;;;33.95;23.10;;;0.10;1.00;;;;;;5114119;27;21084;-80
2022/11/21 05:04:37;;;;;;;35.70;22.98;;;0.10;1.00;;;;;;5105879;28;21181;-80
2022/11/21 05:07:04;;;;;;;35.92;21.90;;;0.20;1.00;;;;;;5118459;27;20235;-80
2022/11/21 05:09:34;;;;;;;32.92;19.95;;;0.20;1.00;;;;;;5114054;28;20258;-80
2022/11/21 05:14:48;;;;;;;31.55;21.25;;;0.30;1.00;;;;;;5112457;28;20333;-81
2022/11/21 05:17:18;;;;;;;35.50;21.63;;;0.30;1.00;;;;;;5120481;28;20242;-80
2022/11/21 05:19:47;;;;;;;33.35;20.08;;;0.30;1.00;;;;;;5107511;28;20270;-80
2022/11/21 05:22:14;;;;;;;36.38;22.73;;;0.40;1.00;;;;;;5118052;28;20246;-79
2022/11/21 05:24:42;;;;;;;37.08;23.13;;;0.40;1.00;;;;;;5117485;28;20320;-80
2022/11/21 05:27:09;;;;;;;32.38;20.35;;;0.50;1.00;;;;;;5114137;27;20239;-81
2022/11/21 05:29:41;;;;;;;31.15;20.00;;;0.50;1.00;;;;;;5112335;27;20237;-80
2022/11/21 05:32:10;;;;;;;34.53;20.10;;;0.60;1.00;;;;;;5113155;28;20281;-81
2022/11/21 05:34:37;;;;;;;36.95;21.67;;;0.60;1.00;;;;;;5120842;28;20256;-80
2022/11/21 05:37:06;;;;;;;38.72;20.85;;;0.70;1.00;;;;;;5114878;27;20302;-81
2022/11/21 05:39:33;;;;;;;33.50;21.17;;;0.60;1.00;;;;;;5116616;28;20231;-81
2022/11/21 05:42:04;;;;;;;33.75;19.75;;;0.60;1.00;;;;;;5116651;27;20235;-80
2022/11/21 05:44:30;;;;;;;38.17;22.33;;;0.60;1.00;;;;;;5113406;28;20242;-81
2022/11/21 05:46:59;;;;;;;34.45;21.17;;;0.60;1.00;;;;;;5115598;27;20269;-80
2022/11/21 05:49:29;;;;;;;33.78;21.58;;;0.60;1.00;;;;;;5110532;28;20310;-79
2022/11/21 05:51:58;;;;;;;31.23;20.67;;;0.60;1.00;;;;;;5120494;27;20247;-81
2022/11/21 05:54:25;;;;;;;43.50;28.40;;;0.60;1.00;;;;;;5110677;28;21058;-80
2022/11/21 05:56:52;;;;;;;36.58;22.20;;;0.70;1.00;;;;;;5106024;28;20251;-81
2022/11/21 05:59:24;;;;;;;34.80;21.58;;;0.70;1.00;;;;;;5118335;27;20215;-81
2022/11/21 06:07:24;;;;;;;34.38;20.80;;;0.60;1.00;;;;;;5135756;27;20230;-80
2022/11/21 06:10:01;;;;;;;33.67;21.33;;;0.60;1.00;;;;;;5148103;27;20227;-81
2022/11/21 06:12:28;;;;;;;36.92;22.70;;;0.70;1.00;;;;;;5147512;27;21723;-80
2022/11/21 06:15:01;;;;;;;34.72;22.17;;;0.70;1.00;;;;;;5137172;27;20242;-81
2022/11/21 06:17:29;;;;;;;32.38;21.33;;;0.70;1.00;;;;;;5141553;27;20648;-80
2022/11/21 06:19:57;;;;;;;43.95;28.75;;;0.80;1.00;;;;;;5144338;27;20234;-81
2022/11/21 06:22:27;;;;;;;31.90;21.23;;;0.90;1.00;;;;;;5141528;27;20235;-81
2022/11/21 06:24:54;;;;;;;32.50;20.70;;;0.90;1.00;;;;;;5138938;27;20246;-80
2022/11/21 06:27:31;;;;;;;34.67;21.20;;;0.90;1.00;;;;;;5137945;27;20242;-80
2022/11/21 06:30:07;;;;;;;33.72;21.00;;;1.00;1.00;;;;;;5146120;27;20298;-83
2022/11/21 06:32:41;;;;;;;34.00;21.92;;;1.00;1.00;;;;;;5142498;27;20281;-87
2022/11/21 06:35:10;;;;;;;32.50;20.50;;;1.10;1.00;;;;;;5141706;27;20231;-81
2022/11/21 06:40:30;;;;;;;34.60;23.15;;;1.00;1.00;;;;;;5144411;27;20234;-82
2022/11/21 06:43:08;;;;;;;39.63;25.70;;;1.10;1.00;;;;;;5138034;27;20242;-80
2022/11/21 06:45:45;;;;;;;36.45;21.98;;;1.20;1.00;;;;;;5129965;27;20234;-81
2022/11/21 06:48:15;;;;;;;36.70;23.80;;;1.20;1.00;;;;;;5134137;27;20229;-88
2022/11/21 06:50:43;;;;;;;36.55;22.67;;;1.20;1.00;;;;;;5135512;27;20218;-79
2022/11/21 06:55:54;;;;;;;38.35;23.48;;;1.20;1.00;;;;;;5139848;27;20235;-81
2022/11/21 06:58:25;;;;;;;35.78;22.88;;;1.20;1.00;;;;;;5133981;27;20224;-82
2022/11/21 07:00:54;;;;;;;38.45;23.98;;;1.30;1.00;;;;;;5126024;27;20227;-83
2022/11/21 07:03:23;;;;;;;32.70;24.05;;;1.30;1.00;;;;;;5139663;27;20255;-81
2022/11/21 07:05:51;;;;;;;34.05;22.33;;;1.30;1.00;;;;;;5136227;27;20265;-82
2022/11/21 07:08:22;;;;;;;38.45;23.88;;;1.30;1.00;;;;;;5140197;27;20219;-82
2022/11/21 07:10:49;;;;;;;33.47;24.63;;;1.40;1.00;;;;;;5136364;27;20239;-81
2022/11/21 07:13:24;;;;;;;32.85;22.85;;;1.40;1.00;;;;;;5132283;27;20622;-81
2022/11/21 07:16:03;;;;;;;32.13;21.00;;;1.40;1.00;;;;;;5138269;27;21102;-85
2022/11/21 07:18:33;;;;;;;33.20;22.35;;;1.40;1.00;;;;;;5142724;27;20262;-83
2022/11/21 07:21:05;;;;;;;32.25;21.05;;;1.40;1.00;;;;;;5116490;27;20231;-86
2022/11/21 07:23:33;;;;;;;32.38;20.70;;;1.40;1.00;;;;;;5141029;27;20923;-80
2022/11/21 07:26:07;;;;;;;35.13;21.27;;;1.30;1.00;;;;;;5135563;27;20234;-81
2022/11/21 07:28:35;;;;;;;39.10;25.08;;;1.30;1.00;;;;;;5135615;27;20292;-82
2022/11/21 07:31:08;;;;;;;35.50;21.83;;;1.20;1.00;;;;;;5142922;27;20227;-84
2022/11/21 07:33:42;;;;;;;37.80;24.02;;;1.00;1.00;;;;;;5135238;27;20321;-83
2022/11/21 07:36:09;;;;;;;37.40;25.00;;;0.90;1.00;;;;;;5136578;27;20235;-84
2022/11/21 07:38:40;;;;;;;39.10;24.58;;;0.80;1.00;;;;;;5131803;27;20230;-82
2022/11/21 07:41:09;;;;;;;32.25;22.60;;;0.80;1.00;;;;;;5136300;27;20242;-82
2022/11/21 07:43:41;;;;;;;35.50;23.15;;;0.70;1.00;;;;;;5136211;27;20240;-82
2022/11/21 07:46:10;;;;;;;35.95;24.80;;;0.60;1.00;;;;;;5130990;27;22517;-85
2022/11/21 07:48:37;;;;;;;32.60;22.88;;;0.60;1.00;;;;;;5130870;27;20243;-78
2022/11/21 07:51:13;;;;;;;34.80;22.35;;;0.60;1.00;;;;;;5127288;27;20245;-81
2022/11/21 07:53:46;;;;;;;38.72;26.40;;;0.60;1.00;;;;;;5112421;27;20424;-81
2022/11/21 07:56:13;;;;;;;41.03;23.73;;;0.60;1.00;;;;;;5117618;27;21096;-85
2022/11/21 07:58:42;;;;;;;35.40;22.75;;;0.60;1.00;;;;;;5088886;27;20221;-81
2022/11/21 08:01:20;;;;;;;33.42;21.95;;;0.60;1.00;;;;;;5106536;27;20215;-85
2022/11/21 08:03:53;;;;;;;39.20;23.38;;;0.60;1.00;;;;;;5118106;27;20258;-88
2022/11/21 08:06:23;;;;;;;34.75;23.42;;;0.80;1.00;;;;;;5104815;27;20277;-86
2022/11/21 08:08:54;;;;;;;39.03;24.67;;;1.00;1.00;;;;;;5121979;27;20208;-80
2022/11/21 08:11:32;;;;;;;35.10;23.65;;;1.10;1.00;;;;;;5114094;27;20231;-84
2022/11/21 08:14:04;;;;;;;40.70;23.67;;;1.10;1.00;;;;;;5119834;27;20321;-83
2022/11/21 08:16:35;;;;;;;34.05;23.77;;;1.20;1.00;;;;;;5115968;27;20258;-78
2022/11/21 08:19:04;;;;;;;34.10;23.13;;;1.40;1.00;;;;;;5118944;27;20228;-82
2022/11/21 08:21:31;;;;;;;41.08;26.33;;;1.50;1.00;;;;;;5124339;27;21059;-81
2022/11/21 08:24:09;;;;;;;38.55;25.27;;;1.60;1.00;;;;;;5122007;27;20237;-83
2022/11/21 08:26:42;;;;;;;37.28;24.63;;;1.60;1.00;;;;;;5084404;28;20259;-83
2022/11/21 08:29:14;;;;;;;39.70;26.10;;;1.60;1.00;;;;;;5106432;27;20239;-83
2022/11/21 08:31:45;;;;;;;37.05;24.90;;;1.60;1.00;;;;;;5098481;27;20243;-84
2022/11/21 08:34:14;;;;;;;39.00;26.38;;;1.60;1.00;;;;;;5119469;27;20306;-81
2022/11/21 08:36:44;;;;;;;41.08;27.05;;;1.60;1.00;;;;;;5119800;28;20261;-79
2022/11/21 08:39:13;;;;;;;42.50;28.27;;;1.60;1.00;;;;;;5122063;28;20329;-84
2022/11/21 08:44:29;;;;;;;37.08;25.27;;;1.50;1.00;;;;;;5116498;27;20360;-80
2022/11/21 08:47:05;;;;;;;45.58;28.00;;;1.60;1.00;;;;;;5121004;28;20269;-83
2022/11/21 08:49:32;;;;;;;41.28;24.83;;;1.60;1.00;;;;;;5122711;27;20289;-83
2022/11/21 08:52:03;;;;;;;40.45;24.80;;;1.60;1.00;;;;;;5112233;27;20265;-84
2022/11/21 08:54:31;;;;;;;40.05;25.02;;;1.70;1.00;;;;;;5141456;27;20244;-84
2022/11/21 08:57:06;;;;;;;40.13;28.50;;;1.70;1.00;;;;;;5145702;27;20231;-81
2022/11/21 08:59:33;;;;;;;38.80;24.45;;;1.80;1.00;;;;;;5130716;27;20238;-83
2022/11/21 09:02:06;;;;;;;41.83;26.15;;;1.80;1.00;;;;;;5137572;27;20239;-84
2022/11/21 09:04:41;;;;;;;33.40;23.75;;;1.80;1.00;;;;;;5137628;27;20233;-78
2022/11/21 09:07:10;;;;;;;35.85;24.05;;;1.70;1.00;;;;;;5133837;27;20306;-83
2022/11/21 09:09:45;;;;;;;37.60;23.33;;;1.70;1.00;;;;;;5134207;27;20232;-81
2022/11/21 09:12:12;;;;;;;35.30;23.08;;;1.70;1.00;;;;;;5142223;27;20291;-83
2022/11/21 09:20:20;;;;;;;40.00;23.75;;;1.60;1.00;;;;;;5134656;27;20231;-81
2022/11/21 09:22:52;;;;;;;38.40;22.85;;;1.70;1.00;;;;;;5124760;27;20345;-82
2022/11/21 09:25:23;;;;;;;36.90;25.15;;;1.70;1.00;;;;;;5134176;27;20235;-80
2022/11/21 09:27:50;;;;;;;37.78;27.50;;;1.70;1.00;;;;;;5136145;27;20396;-79
2022/11/21 09:30:20;;;;;;;33.88;22.23;;;1.70;1.00;;;;;;5131916;27;20227;-80
2022/11/21 09:33:02;;;;;;;35.78;23.70;;;1.70;1.00;;;;;;5135736;27;20243;-81
2022/11/21 09:35:29;;;;;;;41.13;22.80;;;1.60;1.00;;;;;;5132055;27;20243;-80
2022/11/21 09:38:02;;;;;;;39.60;25.25;;;1.60;1.00;;;;;;5140247;27;20246;-81
2022/11/21 09:40:34;;;;;;;40.25;23.98;;;1.60;1.00;;;;;;5133699;27;20219;-81
2022/11/21 09:43:18;;;;;;;38.50;24.17;;;1.60;1.00;;;;;;5136520;27;20380;-80
2022/11/21 09:45:47;;;;;;;34.92;22.58;;;1.60;1.00;;;;;;5135422;27;20319;-81
2022/11/21 09:48:22;;;;;;;36.33;21.58;;;1.50;1.00;;;;;;5130364;27;20216;-80
2022/11/21 09:50:53;;;;;;;30.63;18.77;;;1.50;1.00;;;;;;5106688;27;20235;-81
2022/11/21 09:53:25;;;;;;;33.03;20.95;;;1.40;1.00;;;;;;5127449;27;20239;-79
2022/11/21 09:55:56;;;;;;;34.50;21.52;;;1.40;1.00;;;;;;5135989;27;20265;-80
2022/11/21 09:58:31;;;;;;;36.25;21.23;;;1.40;1.00;;;;;;5139069;27;22215;-78
2022/11/21 10:01:04;;;;;;;35.80;20.80;;;1.40;1.00;;;;;;5137106;27;20234;-80
2022/11/21 10:03:43;;;;;;;37.88;21.70;;;1.40;1.00;;;;;;5133611;27;20266;-80
2022/11/21 10:06:19;;;;;;;35.17;21.15;;;1.50;1.00;;;;;;5122608;27;20355;-80
2022/11/21 10:09:00;;;;;;;34.33;21.77;;;1.60;1.00;;;;;;5135632;27;20237;-80
2022/11/21 10:12:35;;;;;;;36.63;20.88;;;1.60;1.00;;;;;;5138577;27;20239;-80
2022/11/21 10:14:46;;;;;;;35.60;22.08;;;1.50;1.00;;;;;;5136241;27;20246;-83
2022/11/21 10:17:24;;;;;;;37.92;23.13;;;1.50;1.00;;;;;;5140935;27;20242;-80
2022/11/21 10:20:11;;;;;;;36.03;24.08;;;1.50;1.00;;;;;;5138333;27;20234;-80
2022/11/21 10:23:04;;;;;;;44.72;24.92;;;1.40;1.00;;;;;;5136148;27;20211;-79
2022/11/21 10:25:43;;;;;;;36.72;21.80;;;1.30;1.00;;;;;;5140365;27;20261;-80
2022/11/21 10:31:33;;;;;;;36.58;22.00;;;1.10;1.00;;;;;;5140080;27;20301;-85
2022/11/21 10:34:15;;;;;;;36.20;22.30;;;1.00;1.00;;;;;;5133100;27;20240;-83
2022/11/21 10:36:55;;;;;;;36.92;21.33;;;0.90;1.00;;;;;;5137368;27;20390;-81
2022/11/21 10:39:34;;;;;;;33.33;21.58;;;0.90;1.00;;;;;;5113585;27;20246;-85
2022/11/21 10:42:12;;;;;;;28.40;18.50;;;1.00;1.00;;;;;;5139350;27;20214;-85
2022/11/21 10:47:43;;;;;;;32.58;20.17;;;1.00;1.00;;;;;;5140334;27;20234;-83
2022/11/21 10:50:29;;;;;;;34.90;19.75;;;1.00;1.00;;;;;;5140984;27;20238;-84
2022/11/21 10:56:09;;;;;;;34.33;20.73;;;0.90;1.00;;;;;;5138920;27;20215;-80
2022/11/21 10:58:45;;;;;;;33.85;19.00;;;0.90;1.00;;;;;;5118101;27;20242;-80
2022/11/21 11:01:27;;;;;;;32.47;19.27;;;0.90;1.00;;;;;;5135311;27;20953;-82
2022/11/21 11:04:15;;;;;;;33.20;20.75;;;1.00;1.00;;;;;;5133909;27;20236;-80
2022/11/21 11:06:46;;;;;;;34.70;23.10;;;1.00;1.00;;;;;;5137013;27;20282;-79
2022/11/21 11:09:28;;;;;;;33.97;21.80;;;1.00;1.00;;;;;;5134944;27;20238;-80
2022/11/21 11:13:32;;;;;;;35.08;21.23;;;1.00;1.00;;;;;;5137990;27;20238;-80
2022/11/21 11:15:25;;;;;;;31.52;18.83;;;0.90;1.00;;;;;;5144000;27;20241;-81
2022/11/21 11:17:56;;;;;;;30.20;18.02;;;0.90;1.00;;;;;;5135196;27;20242;-80
2022/11/21 11:20:35;;;;;;;29.13;17.73;;;1.00;1.00;;;;;;5138947;27;20228;-80
2022/11/21 11:23:27;;;;;;;30.70;18.02;;;1.00;1.00;;;;;;5135461;27;20253;-84
2022/11/21 11:25:57;;;;;;;24.50;17.17;;;1.00;1.00;;;;;;5133504;27;20239;-80
2022/11/21 11:28:25;;;;;;;28.33;17.25;;;1.00;1.00;;;;;;5126164;27;20249;-79
2022/11/21 11:30:55;;;;;;;32.35;18.63;;;1.00;1.00;;;;;;5116814;27;20275;-81
2022/11/21 11:33:36;;;;;;;26.45;17.00;;;1.00;1.00;;;;;;5126883;27;20298;-80
2022/11/21 11:39:09;;;;;;;31.13;19.08;;;1.00;1.00;;;;;;5131661;27;20243;-79
2022/11/21 11:48:02;;;;;;;32.22;20.35;;;1.10;1.00;;;;;;5138225;27;20242;-80
2022/11/21 11:50:36;;;;;;;33.65;21.67;;;1.20;1.00;;;;;;5137740;27;20239;-80
2022/11/21 11:53:11;;;;;;;34.58;23.23;;;1.20;1.00;;;;;;5137886;27;20240;-79
2022/11/21 11:55:46;;;;;;;31.00;18.80;;;1.10;1.00;;;;;;5139135;27;20235;-79
2022/11/21 11:58:26;;;;;;;27.85;16.80;;;1.20;1.00;;;;;;5129795;27;20384;-80
2022/11/21 12:01:03;;;;;;;23.73;15.68;;;1.20;1.00;;;;;;5134845;27;20236;-79
2022/11/21 12:03:44;;;;;;;27.38;17.73;;;1.20;1.00;;;;;;5137749;27;21114;-83
2022/11/21 12:06:25;;;;;;;24.02;14.95;;;1.20;1.00;;;;;;5115228;27;20235;-81
2022/11/21 12:09:07;;;;;;;;;;;;;;;;;;;;;
2022/11/21 12:18:13;;;;;;;25.20;14.10;;;1.20;1.00;;;;;;5127773;27;20247;-85
2022/11/21 12:24:00;;;;;;;22.33;12.45;;;1.10;1.00;;;;;;5131312;27;20231;-81
2022/11/21 12:26:51;;;;;;;24.90;13.27;;;1.10;1.00;;;;;;5118501;27;20450;-83
2022/11/21 12:39:33;;;;;;;24.90;14.57;;;1.30;1.00;;;;;;5089278;27;20240;-83
2022/11/21 12:45:39;;;;;;;18.75;11.65;;;1.20;1.00;;;;;;5128576;27;20215;-85
2022/11/21 12:54:52;;;;;;;21.00;13.43;;;1.10;1.00;;;;;;5138997;27;20214;-84
2022/11/21 12:57:36;;;;;;;16.67;10.85;;;1.10;1.00;;;;;;5145016;27;20231;-84
2022/11/21 13:00:17;;;;;;;18.60;11.30;;;1.10;1.00;;;;;;5138179;27;20235;-79
2022/11/21 13:05:52;;;;;;;20.17;11.43;;;1.10;1.00;;;;;;5141663;27;20244;-83
2022/11/21 13:08:24;;;;;;;17.45;10.75;;;1.00;1.00;;;;;;5143345;22;20234;-84
2022/11/21 13:11:57;;;;;;;19.27;11.32;;;0.90;1.00;;;;;;5122046;27;20235;-84
2022/11/21 13:13:54;;;;;;;21.02;12.35;;;0.90;1.00;;;;;;5119410;27;20239;-84
2022/11/21 13:16:36;;;;;;;19.13;11.93;;;0.80;1.00;;;;;;5107447;27;20258;-84
2022/11/21 13:19:25;;;;;;;20.55;11.52;;;0.70;1.00;;;;;;5106118;28;20384;-82
2022/11/21 13:21:56;;;;;;;19.00;11.88;;;0.80;1.00;;;;;;5101101;28;20235;-82
2022/11/21 13:24:55;;;;;;;19.83;12.30;;;0.80;1.00;;;;;;5126740;27;20235;-83
2022/11/21 13:27:29;;;;;;;21.20;12.55;;;0.80;1.00;;;;;;5090526;27;20236;-84
2022/11/21 13:30:23;;;;;;;20.20;13.57;;;0.80;1.00;;;;;;5112762;27;20239;-83
2022/11/21 13:36:05;;;;;;;22.88;13.65;;;0.90;1.00;;;;;;5109985;27;20232;-82
2022/11/21 13:39:17;;;;;;;22.38;14.10;;;0.90;1.00;;;;;;5114169;27;20269;-82
2022/11/21 13:44:51;;;;;;;19.52;12.70;;;1.00;1.00;;;;;;5128713;27;20219;-81
2022/11/21 13:47:55;;;;;;;23.25;13.95;;;1.00;1.00;;;;;;5118402;27;20285;-81
2022/11/21 13:50:52;;;;;;;19.73;12.95;;;1.00;1.00;;;;;;5086083;27;20232;-81
2022/11/21 13:53:57;;;;;;;22.58;14.38;;;1.00;1.00;;;;;;5093350;28;20239;-84
2022/11/21 13:56:36;;;;;;;23.15;13.45;;;1.00;1.00;;;;;;5096909;28;20963;-83
2022/11/21 13:59:21;;;;;;;25.50;15.85;;;0.90;1.00;;;;;;5104542;27;20231;-80
2022/11/21 14:02:20;;;;;;;21.75;13.90;;;0.90;1.00;;;;;;5097199;28;20240;-80
2022/11/21 14:05:17;;;;;;;21.95;14.13;;;0.90;1.00;;;;;;5119696;27;20265;-78
2022/11/21 14:07:44;;;;;;;25.05;14.65;;;0.90;1.00;;;;;;5074856;27;20262;-80
2022/11/21 14:10:37;;;;;;;21.13;13.18;;;0.90;1.00;;;;;;5104787;28;20239;-82
2022/11/21 14:13:05;;;;;;;21.95;14.77;;;0.70;1.00;;;;;;5095780;28;20238;-82
2022/11/21 14:15:44;;;;;;;21.45;14.30;;;0.50;1.00;;;;;;5087192;28;20236;-83
2022/11/21 14:18:21;;;;;;;23.05;14.75;;;0.40;1.00;;;;;;5085621;28;20266;-79
2022/11/21 14:20:55;;;;;;;23.58;14.73;;;0.40;1.00;;;;;;5089286;28;20247;-80
2022/11/21 14:23:24;;;;;;;23.38;15.60;;;0.40;1.00;;;;;;5097055;27;20236;-84
2022/11/21 14:25:58;;;;;;;23.98;14.70;;;0.50;1.00;;;;;;5105370;27;20228;-83
2022/11/21 14:28:31;;;;;;;22.58;13.98;;;0.60;1.00;;;;;;5090872;27;20248;-81
2022/11/21 14:31:00;;;;;;;28.20;17.42;;;0.60;1.00;;;;;;5097717;27;20690;-81
2022/11/21 14:33:34;;;;;;;23.25;15.10;;;0.70;1.00;;;;;;5102126;27;20620;-81
2022/11/21 14:36:04;;;;;;;24.73;15.90;;;0.70;1.00;;;;;;5103830;27;20305;-82
2022/11/21 14:38:40;;;;;;;22.77;14.27;;;0.70;1.00;;;;;;5098823;27;20284;-81
2022/11/21 14:41:26;;;;;;;21.60;14.20;;;0.70;1.00;;;;;;5106137;27;20242;-81
2022/11/21 14:44:03;;;;;;;25.10;16.45;;;0.70;1.00;;;;;;5112911;27;20234;-81
2022/11/21 14:46:32;;;;;;;26.58;15.63;;;0.60;1.00;;;;;;5108242;27;20236;-82
2022/11/21 14:49:23;;;;;;;22.60;14.68;;;0.60;1.00;;;;;;5124222;27;20239;-84
2022/11/21 14:51:55;;;;;;;25.40;14.75;;;0.50;1.00;;;;;;5111767;27;20241;-84
2022/11/21 14:54:27;;;;;;;23.48;15.38;;;0.30;1.00;;;;;;5114623;27;20283;-85
2022/11/21 14:56:59;;;;;;;23.15;14.77;;;0.30;1.00;;;;;;5120062;27;20823;-86
2022/11/21 14:59:29;;;;;;;24.20;15.98;;;0.30;1.00;;;;;;5117918;27;20395;-85
2022/11/21 15:02:00;;;;;;;23.30;15.25;;;0.40;1.00;;;;;;5120089;27;20960;-84
2022/11/21 15:04:39;;;;;;;26.83;17.25;;;0.20;1.00;;;;;;5115120;27;20253;-82
2022/11/21 15:07:18;;;;;;;24.83;15.30;;;0.20;1.00;;;;;;5101710;27;20385;-79